createdAt,value
2023-03-14T00:01:53.207Z,3.90
2023-03-14T00:05:10.522Z,3.70
2023-03-14T00:08:22.845Z,4.60
2023-03-14T00:11:45.108Z,4.10
2023-03-14T00:15:08.380Z,5.50
2023-03-14T00:18:23.775Z,4.60
2023-03-14T00:21:32.093Z,6.20
2023-03-14T00:28:30.799Z,2.70
2023-03-14T00:31:44.431Z,3.90
2023-03-14T00:38:43.584Z,3.50
2023-03-14T00:42:34.126Z,4.60
2023-03-14T00:49:59.298Z,5.00
2023-03-14T00:57:13.804Z,4.30
2023-03-14T01:01:08.314Z,3.10
2023-03-14T01:04:32.022Z,6.20
2023-03-14T01:11:44.400Z,5.20
2023-03-14T01:15:17.545Z,4.10
2023-03-14T01:18:44.545Z,6.80
2023-03-14T01:22:03.837Z,3.10
2023-03-14T01:25:19.035Z,5.10
2023-03-14T01:28:27.156Z,4.40
2023-03-14T01:31:37.315Z,4.10
2023-03-14T01:34:56.912Z,5.50
2023-03-14T01:41:37.773Z,4.20
2023-03-14T01:45:15.209Z,3.70
2023-03-14T01:48:31.231Z,5.70
2023-03-14T01:52:24.051Z,6.30
2023-03-14T01:59:23.711Z,5.10
2023-03-14T02:02:44.976Z,7.70
2023-03-14T02:09:58.427Z,4.80
2023-03-14T02:13:31.544Z,5.90
2023-03-14T02:16:44.892Z,4.90
2023-03-14T02:19:59.298Z,6.60
2023-03-14T02:23:22.846Z,5.20
2023-03-14T02:26:21.611Z,4.70
2023-03-14T02:37:20.755Z,7.40
2023-03-14T02:40:27.218Z,4.20
2023-03-14T02:43:45.633Z,4.80
2023-03-14T02:46:56.497Z,7.00
2023-03-14T02:53:57.216Z,4.20
2023-03-14T02:57:12.473Z,6.00
2023-03-14T03:00:33.002Z,6.00
2023-03-14T03:03:43.428Z,7.50
2023-03-14T03:06:48.221Z,3.50
2023-03-14T03:09:49.891Z,3.60
2023-03-14T03:12:54.637Z,3.30
2023-03-14T03:16:02.841Z,2.50
2023-03-14T03:22:45.370Z,4.30
2023-03-14T03:33:15.615Z,3.80
2023-03-14T03:36:41.914Z,3.90
2023-03-14T03:47:07.440Z,5.00
2023-03-14T03:50:11.618Z,7.00
2023-03-14T03:53:26.823Z,4.30
2023-03-14T03:56:39.862Z,4.00
2023-03-14T04:00:19.497Z,4.60
2023-03-14T04:06:28.935Z,4.40
2023-03-14T04:13:40.175Z,3.20
2023-03-14T04:16:51.471Z,4.70
2023-03-14T04:20:05.683Z,6.30
2023-03-14T04:30:36.884Z,6.80
2023-03-14T04:33:57.647Z,3.30
2023-03-14T04:37:16.495Z,2.90
2023-03-14T04:40:31.619Z,4.40
2023-03-14T04:43:41.722Z,4.80
2023-03-14T04:46:46.918Z,2.40
2023-03-14T04:49:55.442Z,4.10
2023-03-14T04:53:13.181Z,4.50
2023-03-14T04:56:20.481Z,3.80
2023-03-14T04:59:59.226Z,5.20
2023-03-14T05:07:46.421Z,5.90
2023-03-14T05:11:21.174Z,15.40
2023-03-14T05:15:20.849Z,12.40
2023-03-14T05:22:24.687Z,9.80
2023-03-14T05:26:23.612Z,9.60
2023-03-14T05:29:50.912Z,15.50
2023-03-14T05:33:41.798Z,11.30
2023-03-14T05:41:00.573Z,4.80
2023-03-14T05:44:12.696Z,6.60
2023-03-14T05:47:22.775Z,10.60
2023-03-14T05:50:42.573Z,6.40
2023-03-14T05:53:54.121Z,5.40
2023-03-14T05:57:04.241Z,11.20
2023-03-14T06:00:31.144Z,8.50
2023-03-14T06:03:42.641Z,7.80
2023-03-14T06:06:52.896Z,6.80
2023-03-14T06:10:03.180Z,10.00
2023-03-14T06:13:10.372Z,8.10
2023-03-14T06:16:33.162Z,6.70
2023-03-14T06:19:45.246Z,9.50
2023-03-14T06:22:47.459Z,6.60
2023-03-14T06:29:36.398Z,5.70
2023-03-14T06:32:47.118Z,4.50
2023-03-14T06:36:14.421Z,6.10
2023-03-14T06:39:56.669Z,5.40
2023-03-14T06:43:37.250Z,6.10
2023-03-14T06:46:52.825Z,6.40
2023-03-14T06:54:09.890Z,7.20
2023-03-14T07:00:49.379Z,5.70
2023-03-14T07:08:15.020Z,7.50
2023-03-14T07:11:44.526Z,5.50
2023-03-14T07:18:48.979Z,4.10
2023-03-14T07:21:54.390Z,5.20
2023-03-14T07:33:04.930Z,6.60
2023-03-14T07:36:39.211Z,5.50
2023-03-14T07:39:59.005Z,6.20
2023-03-14T07:45:43.194Z,5.50
2023-03-14T07:51:03.556Z,5.60
2023-03-14T07:59:24.548Z,6.10
2023-03-14T08:07:54.369Z,4.70
2023-03-14T08:13:27.589Z,7.30
2023-03-14T08:18:53.659Z,6.00
2023-03-14T08:24:19.580Z,5.90
2023-03-14T08:34:12.463Z,7.20
2023-03-14T08:46:54.794Z,5.70
2023-03-14T08:52:34.682Z,6.30
2023-03-14T08:58:33.521Z,4.60
2023-03-14T09:01:54.968Z,6.80
2023-03-14T09:05:18.376Z,8.70
2023-03-14T09:12:30.376Z,7.90
2023-03-14T09:25:57.693Z,6.00
2023-03-14T09:34:32.733Z,5.00
2023-03-14T09:43:02.689Z,5.80
2023-03-14T09:46:14.868Z,5.50
2023-03-14T09:52:06.787Z,4.00
2023-03-14T10:03:58.949Z,4.70
2023-03-14T10:10:02.795Z,4.50
2023-03-14T10:16:35.577Z,5.30
2023-03-14T10:22:10.567Z,4.50
2023-03-14T10:25:22.497Z,6.40
2023-03-14T10:31:17.698Z,5.20
2023-03-14T10:37:02.732Z,5.60
2023-03-14T10:40:09.503Z,4.00
2023-03-14T10:43:08.589Z,6.70
2023-03-14T10:55:22.576Z,4.40
2023-03-14T10:59:04.517Z,5.60
2023-03-14T11:01:48.605Z,5.40
2023-03-14T11:07:39.381Z,5.40
2023-03-14T11:13:41.586Z,5.00
2023-03-14T11:22:38.759Z,3.40
2023-03-14T11:28:11.731Z,4.20
2023-03-14T11:31:29.414Z,3.40
2023-03-14T11:34:35.706Z,4.90
2023-03-14T11:40:18.705Z,5.50
2023-03-14T11:46:20.761Z,5.20
2023-03-14T11:49:35.305Z,4.30
2023-03-14T11:52:38.631Z,7.00
2023-03-14T11:55:54.346Z,4.30
2023-03-14T12:03:12.869Z,6.30
2023-03-14T12:06:59.704Z,3.90
2023-03-14T12:10:56.483Z,6.60
2023-03-14T12:14:30.145Z,5.80
2023-03-14T12:18:38.458Z,6.70
2023-03-14T12:21:54.385Z,6.60
2023-03-14T12:41:14.203Z,5.30
2023-03-14T12:44:55.654Z,7.10
2023-03-14T12:48:38.708Z,9.60
2023-03-14T12:52:17.074Z,5.40
2023-03-14T13:03:50.561Z,5.90
2023-03-14T13:15:05.810Z,4.90
2023-03-14T13:18:25.172Z,5.80
2023-03-14T13:21:55.255Z,5.00
2023-03-14T13:25:09.160Z,7.00
2023-03-14T13:28:28.321Z,5.70
2023-03-14T13:35:26.788Z,7.60
2023-03-14T13:38:44.856Z,6.50
2023-03-14T13:41:50.561Z,10.10
2023-03-14T13:45:02.012Z,9.30
2023-03-14T13:48:19.191Z,8.90
2023-03-14T13:51:49.974Z,11.70
2023-03-14T14:02:27.728Z,7.90
2023-03-14T14:05:39.684Z,7.10
2023-03-14T14:09:14.974Z,7.20
2023-03-14T14:16:11.647Z,7.50
2023-03-14T14:19:45.819Z,7.30
2023-03-14T14:22:59.038Z,10.60
2023-03-14T14:30:24.014Z,7.70
2023-03-14T14:33:50.111Z,9.20
2023-03-14T14:37:28.362Z,8.20
2023-03-14T14:41:14.684Z,10.40
2023-03-14T14:44:54.842Z,8.40
2023-03-14T14:48:23.586Z,9.10
2023-03-14T14:51:44.951Z,7.10
2023-03-14T14:55:18.089Z,7.40
2023-03-14T14:58:40.343Z,10.60
2023-03-14T15:01:55.366Z,8.10
2023-03-14T15:08:24.823Z,11.40
2023-03-14T15:11:41.595Z,8.90
2023-03-14T15:14:46.883Z,12.30
2023-03-14T15:17:53.796Z,19.40
2023-03-14T15:21:01.954Z,18.40
2023-03-14T15:24:13.189Z,15.10
2023-03-14T15:30:50.198Z,13.80
2023-03-14T15:34:14.184Z,15.30
2023-03-14T15:37:17.353Z,14.30
2023-03-14T15:40:30.830Z,12.40
2023-03-14T15:43:38.954Z,13.50
2023-03-14T15:49:58.131Z,13.50
2023-03-14T15:53:01.023Z,16.00
2023-03-14T15:56:10.956Z,17.40
2023-03-14T16:01:28.591Z,15.90
2023-03-14T16:10:34.736Z,17.90
2023-03-14T16:16:43.047Z,15.10
2023-03-14T16:20:03.146Z,15.30
2023-03-14T16:22:41.518Z,17.10
2023-03-14T16:26:00.682Z,18.50
2023-03-14T16:29:20.045Z,22.70
2023-03-14T16:32:14.678Z,16.00
2023-03-14T16:38:40.553Z,22.00
2023-03-14T16:41:30.539Z,13.50
2023-03-14T16:44:31.748Z,12.30
2023-03-14T16:47:34.546Z,12.10
2023-03-14T16:50:24.752Z,11.60
2023-03-14T16:53:27.796Z,13.20
2023-03-14T16:56:20.308Z,14.60
2023-03-14T17:02:07.731Z,17.60
2023-03-14T17:07:59.416Z,17.10
2023-03-14T17:11:11.101Z,16.80
2023-03-14T17:14:24.435Z,17.50
2023-03-14T17:20:32.991Z,19.10
2023-03-14T17:23:43.907Z,19.70
2023-03-14T17:26:46.458Z,17.80
2023-03-14T17:30:30.478Z,18.20
2023-03-14T17:33:59.391Z,20.00
2023-03-14T17:40:18.410Z,19.80
2023-03-14T17:46:07.458Z,17.90
2023-03-14T17:51:52.053Z,20.00
2023-03-14T17:55:03.124Z,18.80
2023-03-14T17:57:57.449Z,19.70
2023-03-14T18:03:32.945Z,25.20
2023-03-14T18:09:05.496Z,26.00
2023-03-14T18:12:13.364Z,23.70
2023-03-14T18:18:15.393Z,20.60
2023-03-14T18:21:34.490Z,18.40
2023-03-14T18:27:34.498Z,19.60
2023-03-14T18:34:33.277Z,17.90
2023-03-14T18:37:46.130Z,18.40
2023-03-14T18:41:05.125Z,17.70
2023-03-14T18:44:13.029Z,15.80
2023-03-14T18:47:32.633Z,17.60
2023-03-14T18:53:50.099Z,16.90
2023-03-14T18:57:03.721Z,18.50
2023-03-14T19:00:25.282Z,17.70
2023-03-14T19:03:40.187Z,15.70
2023-03-14T19:06:46.094Z,17.70
2023-03-14T19:10:02.033Z,27.50
2023-03-14T19:13:13.132Z,25.80
2023-03-14T19:16:14.971Z,22.80
2023-03-14T19:19:27.076Z,20.70
2023-03-14T19:22:37.864Z,17.90
2023-03-14T19:25:54.418Z,18.40
2023-03-14T19:32:55.898Z,22.50
2023-03-14T19:36:06.789Z,22.20
2023-03-14T19:39:10.954Z,21.20
2023-03-14T19:42:22.003Z,30.00
2023-03-14T19:45:36.991Z,28.10
2023-03-14T19:56:08.543Z,23.90
2023-03-14T19:59:30.536Z,23.90
2023-03-14T20:02:36.987Z,23.30
2023-03-14T20:06:00.210Z,29.40
2023-03-14T20:09:03.144Z,30.80
2023-03-14T20:12:12.226Z,31.00
2023-03-14T20:18:57.284Z,25.60
2023-03-14T20:25:31.982Z,27.10
2023-03-14T20:28:46.474Z,27.30
2023-03-14T20:35:43.772Z,28.90
2023-03-14T20:38:54.650Z,27.80
2023-03-14T20:44:50.100Z,31.00
2023-03-14T20:48:20.996Z,32.20
2023-03-14T20:51:23.101Z,27.70
2023-03-14T20:54:33.932Z,29.40
2023-03-14T20:57:45.211Z,28.30
2023-03-14T21:00:57.191Z,30.90
2023-03-14T21:04:04.065Z,28.00
2023-03-14T21:07:24.305Z,34.60
2023-03-14T21:10:37.162Z,27.40
2023-03-14T21:13:45.951Z,25.00
2023-03-14T21:17:05.079Z,27.70
2023-03-14T21:20:24.219Z,34.10
2023-03-14T21:23:35.023Z,38.20
2023-03-14T21:26:45.860Z,35.20
2023-03-14T21:29:56.774Z,24.50
2023-03-14T21:33:02.347Z,30.10
2023-03-14T21:36:15.302Z,28.20
2023-03-14T21:39:27.461Z,27.70
2023-03-14T21:42:39.247Z,27.80
2023-03-14T21:45:49.948Z,28.80
2023-03-14T21:49:03.382Z,32.40
2023-03-14T21:52:05.798Z,30.80
2023-03-14T21:55:16.575Z,32.20
2023-03-14T21:58:39.398Z,31.10
2023-03-14T22:01:59.565Z,31.00
2023-03-14T22:05:06.372Z,24.70
2023-03-14T22:08:27.562Z,21.90
2023-03-14T22:11:38.287Z,19.20
2023-03-14T22:14:50.005Z,13.90
2023-03-14T22:18:07.681Z,10.30
2023-03-14T22:21:19.512Z,10.20
2023-03-14T22:24:47.088Z,8.30
2023-03-14T22:27:57.801Z,6.50
2023-03-14T22:31:03.682Z,6.20
2023-03-14T22:34:14.523Z,5.70
2023-03-14T22:37:27.371Z,4.20
2023-03-14T22:40:39.225Z,4.00
2023-03-14T22:43:59.281Z,5.20
2023-03-14T22:47:24.278Z,6.60
2023-03-14T22:50:27.770Z,5.00
2023-03-14T22:53:38.495Z,2.70
2023-03-14T22:56:57.620Z,4.00
2023-03-14T23:00:16.685Z,3.40
2023-03-14T23:03:27.395Z,5.60
2023-03-14T23:06:39.147Z,2.90
2023-03-14T23:09:49.872Z,2.80
2023-03-14T23:13:04.253Z,4.10
2023-03-14T23:16:16.024Z,5.20
2023-03-14T23:19:26.752Z,3.30
2023-03-14T23:22:37.464Z,4.20
2023-03-14T23:25:53.784Z,4.70
2023-03-14T23:29:04.686Z,4.70
2023-03-14T23:32:15.703Z,4.80
2023-03-14T23:35:34.001Z,3.50
2023-03-14T23:41:33.005Z,4.70
2023-03-14T23:44:34.833Z,4.30
2023-03-14T23:47:45.623Z,4.10
2023-03-14T23:50:57.268Z,2.40
2023-03-14T23:54:08.969Z,2.60
2023-03-14T23:57:20.692Z,4.30
